Main page
METAR-TAF:

METAR-TAF

Airports :

Ivato International Airport

Antananarivo, Madagascar

latitude: 18-48S, longitude: 047-29E, elevation: 1279 m

Current weather observation

The report was made 31 minutes ago, at 11:00 UTC
Wind 15 kt from the East/Southeast, varying between East and South/Southeast
Temperature 20°C
Humidity 53%
Pressure 1027 hPa
Visibility 10 km or more
Broken clouds at a height of 2300 ft

METAR: FMMI 151100Z 12015KT 100V160 9999 BKN023 20/10 Q1027 NOSIG

Time: 14:31 (11:31 UTC)

Forecast

The report was made 6 hours and 31 minutes ago, at 05:00 UTC
Forecast valid from 15 at 06 UTC to 16 at 12 UTC
Wind 10 kt from the Southeast
Visibility 10 km or more
Few clouds at a height of 1700 ft
Broken clouds at a height of 2000 ft
Probability 30% :
Temporary
from 15 at 16 UTC to 16 at 03 UTC
Visibility: 4500 m
drizzle

TAF: FMMI 150500Z 1506/1612 14010KT 9999 FEW017 BKN020 PROB30 TEMPO 1516/1603 4500 DZ

Weather observations and forecasts of more than 4000 airports (METAR and TAF reports).

The available stations are represented by yellow and red dots on the map.

Hover mouse over dot to see the name of the station.

Then click to see weather observations and forecasts.

To change the map : click on the green buttons with a black cross to zoom in, on the green button with a dash to zoom out, or on the green arrows for adjacent maps.


METAR-TAF: